Hasvik — LNAR — position and weather

sailwx.info

Track history (hours):
 
Tides and Currents Weather Stations Pressure Air Temp Water Temp Dewpoint Dewpoint Depression Visibility Wind Speed Wind Dir Waves Ship Positions

Hasvik

Last reported at 2018-Feb-23 01:00 UTC. Time now 2018-Feb-23 01:08 UTC.
Position N 70°29' E 022°10'.

Length 62 m; draft 3.5 m.

Type: Passenger vessel. MMSI: 258287000.

Date/timePositionNaut miles runAvg speedWind from/ knotsBaromVisibWave heightAir tempDewpointWater temp
2018-Feb-23 01:00N 70°29' E 022°10'0 0.0
2018-Feb-23 00:30N 70°29' E 022°10'0 0.0
2018-Feb-23 00:00N 70°29' E 022°10'0 0.0
2018-Feb-22 23:30N 70°29' E 022°10'0 0.0
2018-Feb-22 23:00N 70°29' E 022°10'0 0.0
2018-Feb-22 22:30N 70°29' E 022°10'0 0.0
2018-Feb-22 22:00N 70°29' E 022°10'0 0.0
2018-Feb-22 21:30N 70°29' E 022°10'0 0.0
2018-Feb-22 21:00N 70°29' E 022°10'0 0.0
2018-Feb-22 20:30N 70°29' E 022°10'4 7.9
2018-Feb-22 20:00N 70°25' E 022°13'611.7
2018-Feb-22 19:30N 70°20' E 022°17'611.6
2018-Feb-22 19:00N 70°14' E 022°21'2 3.4
2018-Feb-22 18:30N 70°14' E 022°16'2 3.2
2018-Feb-22 18:00N 70°15' E 022°19'611.9
2018-Feb-22 17:30N 70°21' E 022°16'611.7
2018-Feb-22 17:00N 70°26' E 022°13'2 4.3
2018-Feb-22 16:30N 70°29' E 022°11'611.5
2018-Feb-22 16:00N 70°23' E 022°15'611.5
2018-Feb-22 15:30N 70°17' E 022°19'3 7.0
2018-Feb-22 15:00N 70°14' E 022°21'0 0.0
2018-Feb-22 14:30N 70°14' E 022°21'0 0.0
2018-Feb-22 14:00N 70°14' E 022°21'0 0.0
2018-Feb-22 13:30N 70°14' E 022°21'0 0.0
2018-Feb-22 13:00N 70°14' E 022°21'0 0.0
2018-Feb-22 12:30N 70°14' E 022°21'0 0.0
2018-Feb-22 12:00N 70°14' E 022°21'0 0.0
2018-Feb-22 11:30N 70°14' E 022°21'0 0.0
2018-Feb-22 11:00N 70°14' E 022°21'0 0.0
2018-Feb-22 10:30N 70°14' E 022°21'2 4.2
2018-Feb-22 09:59N 70°16' E 022°19'611.6
2018-Feb-22 09:30N 70°22' E 022°15'611.9
2018-Feb-22 09:00N 70°27' E 022°12'0 0.6
2018-Feb-22 08:29N 70°28' E 022°12'611.3
2018-Feb-22 08:00N 70°22' E 022°16'611.5
2018-Feb-22 07:30N 70°16' E 022°19'3 5.3
2018-Feb-22 07:00N 70°14' E 022°18'1 2.3
2018-Feb-22 06:30N 70°14' E 022°21'4 8.2
2018-Feb-22 06:00N 70°18' E 022°18'611.9
2018-Feb-22 05:30N 70°24' E 022°14'610.9
2018-Feb-22 05:00N 70°29' E 022°10'0 0.0
2018-Feb-22 04:30N 70°29' E 022°10'0 0.0
2018-Feb-22 04:00N 70°29' E 022°10'0 0.0
2018-Feb-22 03:29N 70°29' E 022°10'0 0.0
2018-Feb-22 03:00N 70°29' E 022°10'0 0.0
2018-Feb-22 02:30N 70°29' E 022°10'0 0.0
2018-Feb-22 01:59N 70°29' E 022°10'0 0.0
2018-Feb-22 01:30N 70°29' E 022°10'0 0.0
2018-Feb-22 01:00N 70°29' E 022°10'0 0.0
2018-Feb-22 00:29N 70°29' E 022°10'0 0.0
2018-Feb-22 00:00N 70°29' E 022°10'0 0.0
2018-Feb-21 23:29N 70°29' E 022°10'0 0.0
2018-Feb-21 23:00N 70°29' E 022°10'0 0.0
2018-Feb-21 22:29N 70°29' E 022°10'0 0.0
2018-Feb-21 22:00N 70°29' E 022°10'0 0.0
2018-Feb-21 21:30N 70°29' E 022°10'0 0.0
2018-Feb-21 21:00N 70°29' E 022°10'0 0.0
2018-Feb-21 20:30N 70°29' E 022°10'4 8.3
2018-Feb-21 20:00N 70°25' E 022°14'611.4
2018-Feb-21 19:30N 70°20' E 022°17'611.4
2018-Feb-21 19:00N 70°14' E 022°21'2 3.5
2018-Feb-21 18:30N 70°14' E 022°16'2 3.4
2018-Feb-21 17:59N 70°15' E 022°19'611.8
2018-Feb-21 17:30N 70°21' E 022°16'611.8
2018-Feb-21 17:00N 70°26' E 022°13'2 4.5
2018-Feb-21 16:30N 70°29' E 022°11'611.6
2018-Feb-21 16:00N 70°23' E 022°15'611.6
2018-Feb-21 15:29N 70°17' E 022°18'3 6.8
2018-Feb-21 15:00N 70°14' E 022°21'0 0.0
2018-Feb-21 14:30N 70°14' E 022°21'0 0.0
2018-Feb-21 14:00N 70°14' E 022°21'0 0.0
2018-Feb-21 13:29N 70°14' E 022°21'0 0.0
2018-Feb-21 13:00N 70°14' E 022°21'0 0.0
2018-Feb-21 12:30N 70°14' E 022°21'0 0.0
2018-Feb-21 12:00N 70°14' E 022°21'0 0.0
2018-Feb-21 11:30N 70°14' E 022°21'0 0.0
2018-Feb-21 11:00N 70°14' E 022°21'0 0.0
2018-Feb-21 10:30N 70°14' E 022°21'3 5.5
2018-Feb-21 10:00N 70°17' E 022°19'611.6
2018-Feb-21 09:30N 70°22' E 022°15'612.0
2018-Feb-21 09:00N 70°28' E 022°11'0 0.5
2018-Feb-21 08:29N 70°28' E 022°12'611.6
2018-Feb-21 07:58N 70°22' E 022°16'611.9
2018-Feb-21 07:30N 70°17' E 022°19'3 5.2
2018-Feb-21 07:00N 70°14' E 022°18'1 2.3
2018-Feb-21 06:30N 70°14' E 022°21'4 8.0
2018-Feb-21 06:00N 70°18' E 022°18'611.7
2018-Feb-21 05:29N 70°24' E 022°15'511.4
2018-Feb-21 05:00N 70°29' E 022°10'0 0.1
2018-Feb-21 04:30N 70°29' E 022°10'0 0.0
2018-Feb-21 03:59N 70°29' E 022°10'0 0.0
2018-Feb-21 03:30N 70°29' E 022°10'0 0.0
2018-Feb-21 03:00N 70°29' E 022°10'0 0.0
2018-Feb-21 02:30N 70°29' E 022°10'0 0.0
2018-Feb-21 01:59N 70°29' E 022°10'0 0.0
2018-Feb-21 01:30N 70°29' E 022°10'0 0.0
2018-Feb-21 01:00N 70°29' E 022°10'0 0.0
2018-Feb-21 00:30N 70°29' E 022°10'0 0.0
2018-Feb-21 00:00N 70°29' E 022°10'0 0.0
2018-Feb-20 23:30N 70°29' E 022°10'0 0.0
2018-Feb-20 23:00N 70°29' E 022°10'0 0.0
2018-Feb-20 22:30N 70°29' E 022°10'0 0.0
2018-Feb-20 21:59N 70°29' E 022°10'0 0.0
2018-Feb-20 21:30N 70°29' E 022°10'0 0.0
2018-Feb-20 21:00N 70°29' E 022°10'0 0.1
2018-Feb-20 20:30N 70°29' E 022°10'610.8
2018-Feb-20 19:59N 70°23' E 022°15'611.8
2018-Feb-20 19:30N 70°18' E 022°18'4 8.3
2018-Feb-20 19:00N 70°14' E 022°21'0 0.9
2018-Feb-20 18:30N 70°14' E 022°20'3 6.5
2018-Feb-20 17:59N 70°17' E 022°18'611.8
2018-Feb-20 17:30N 70°23' E 022°15'611.9
2018-Feb-20 17:00N 70°29' E 022°10'2 3.5
2018-Feb-20 16:30N 70°27' E 022°12'611.6
2018-Feb-20 15:59N 70°21' E 022°16'611.9
2018-Feb-20 15:30N 70°16' E 022°19'2 3.4
2018-Feb-20 15:00N 70°14' E 022°21'0 0.4
2018-Feb-20 14:30N 70°14' E 022°21'0 0.0
2018-Feb-20 14:00N 70°14' E 022°21'0 0.0
2018-Feb-20 13:29N 70°14' E 022°21'0 0.0
2018-Feb-20 13:00N 70°14' E 022°21'0 0.0
2018-Feb-20 12:30N 70°14' E 022°21'0 0.0
2018-Feb-20 12:00N 70°14' E 022°21'4 8.0
2018-Feb-20 11:30N 70°18' E 022°18'611.9
2018-Feb-20 11:00N 70°24' E 022°14'610.9
2018-Feb-20 10:30N 70°29' E 022°10'3 6.0
2018-Feb-20 10:00N 70°26' E 022°13'611.7
2018-Feb-20 09:28N 70°20' E 022°17'611.9
2018-Feb-20 09:00N 70°15' E 022°20'2 3.5
2018-Feb-20 08:30N 70°14' E 022°16'2 3.7
2018-Feb-20 08:00N 70°14' E 022°21'4 9.0
2018-Feb-20 07:30N 70°18' E 022°15'611.4
2018-Feb-20 07:00N 70°20' E 021°60'611.2
2018-Feb-20 06:30N 70°17' E 021°47'4 7.2
2018-Feb-20 06:00N 70°13' E 021°43'0 0.0
2018-Feb-20 05:29N 70°13' E 021°43'0 0.0
2018-Feb-20 04:59N 70°13' E 021°43'0 0.0
2018-Feb-20 04:23N 70°13' E 021°43'0 0.0
2018-Feb-20 03:56N 70°13' E 021°43'0 0.0
2018-Feb-20 03:16N 70°13' E 021°43'0 0.0
2018-Feb-20 02:36N 70°13' E 021°43'0 0.0
2018-Feb-20 02:24N 70°13' E 021°43'0 0.0
2018-Feb-20 01:25N 70°13' E 021°43'0 0.0
2018-Feb-20 00:27N 70°13' E 021°43'0 0.0
2018-Feb-20 00:00N 70°13' E 021°43'0 0.0
2018-Feb-19 23:28N 70°13' E 021°43'0 0.0
2018-Feb-19 22:58N 70°13' E 021°43'0 0.0
2018-Feb-19 22:30N 70°13' E 021°43'0 0.0
2018-Feb-19 21:32N 70°13' E 021°43'0 0.1
2018-Feb-19 21:30N 70°13' E 021°43'0 0.0
2018-Feb-19 21:00N 70°13' E 021°43'0 0.0
2018-Feb-19 20:20N 70°13' E 021°43'0 0.0
2018-Feb-19 19:59N 70°13' E 021°43'3 5.7
2018-Feb-19 19:30N 70°16' E 021°46'611.1
2018-Feb-19 19:00N 70°20' E 021°57'511.1
2018-Feb-19 18:30N 70°18' E 022°12'510.5
2018-Feb-19 18:00N 70°14' E 022°21'0 0.0
2018-Feb-19 17:30N 70°14' E 022°21'0 0.0
2018-Feb-19 17:00N 70°14' E 022°21'0 0.0
2018-Feb-19 16:30N 70°14' E 022°21'0 0.5
2018-Feb-19 15:59N 70°14' E 022°21'0 0.5
2018-Feb-19 15:29N 70°14' E 022°21'4 8.4
2018-Feb-19 15:00N 70°18' E 022°18'611.6
2018-Feb-19 14:30N 70°24' E 022°14'611.2
2018-Feb-19 14:00N 70°29' E 022°10'0 0.0
2018-Feb-19 13:30N 70°29' E 022°10'0 0.0
2018-Feb-19 12:59N 70°29' E 022°10'0 0.0
2018-Feb-19 12:30N 70°29' E 022°10'0 0.0
2018-Feb-19 12:00N 70°29' E 022°10'0 0.0
2018-Feb-19 11:29N 70°29' E 022°10'0 0.0
2018-Feb-19 11:00N 70°29' E 022°10'0 0.0
2018-Feb-19 10:30N 70°29' E 022°10'2 4.8
2018-Feb-19 10:00N 70°27' E 022°13'611.5
2018-Feb-19 09:30N 70°21' E 022°16'612.1
2018-Feb-19 09:00N 70°15' E 022°20'2 3.6
2018-Feb-19 08:29N 70°14' E 022°16'2 3.8
2018-Feb-19 08:00N 70°14' E 022°21'5 9.5
2018-Feb-19 07:30N 70°18' E 022°14'611.4
2018-Feb-19 06:59N 70°20' E 021°58'611.4
2018-Feb-19 06:30N 70°16' E 021°47'3 6.4
2018-Feb-19 06:00N 70°13' E 021°43'0 0.0
2018-Feb-18 20:00N 70°13' E 021°43'3 5.5
2018-Feb-18 19:28N 70°16' E 021°46'511.2
2018-Feb-18 19:00N 70°20' E 021°56'611.0
2018-Feb-18 18:30N 70°18' E 022°12'510.9
2018-Feb-18 18:00N 70°14' E 022°21'3 5.2
2018-Feb-18 17:30N 70°17' E 022°19'611.2
2018-Feb-18 16:59N 70°20' E 022°05'5 9.9
2018-Feb-18 16:30N 70°18' E 021°51'4 7.0
2018-Feb-18 16:00N 70°15' E 021°46'2 4.6
2018-Feb-18 15:30N 70°13' E 021°43'0 0.0
2018-Feb-18 14:52N 70°13' E 021°43'0 0.0
2018-Feb-18 14:13N 70°13' E 021°43'0 0.0
2018-Feb-18 13:44N 70°13' E 021°43'0 0.0
2018-Feb-18 13:25N 70°13' E 021°43'0 0.0
2018-Feb-18 12:58N 70°13' E 021°43'0 0.0
2018-Feb-18 12:16N 70°13' E 021°43'0 0.0
2018-Feb-18 12:00N 70°13' E 021°43'0 0.0
2018-Feb-18 11:28N 70°13' E 021°43'0 0.0
2018-Feb-18 10:59N 70°13' E 021°43'0 0.0
2018-Feb-18 10:30N 70°13' E 021°43'0 0.0
2018-Feb-18 10:00N 70°13' E 021°43'0 0.0
2018-Feb-18 09:28N 70°13' E 021°43'0 0.0
2018-Feb-18 09:00N 70°13' E 021°43'0 0.0
2018-Feb-18 08:30N 70°13' E 021°43'0 0.0
2018-Feb-18 08:00N 70°13' E 021°43'0 0.0
2018-Feb-18 07:30N 70°13' E 021°43'0 0.0
2018-Feb-18 06:59N 70°13' E 021°43'0 0.0
2018-Feb-18 06:30N 70°13' E 021°43'0 0.0
2018-Feb-18 06:00N 70°13' E 021°43'0 0.0
2018-Feb-18 05:30N 70°13' E 021°43'0 0.0
2018-Feb-18 04:59N 70°13' E 021°43'0 0.0
2018-Feb-18 04:29N 70°13' E 021°43'0 0.0
2018-Feb-18 03:58N 70°13' E 021°43'0 0.0
2018-Feb-18 03:25N 70°13' E 021°43'0 0.0
2018-Feb-18 03:00N 70°13' E 021°43'0 0.0
2018-Feb-18 02:29N 70°13' E 021°43'0 0.0
2018-Feb-18 01:59N 70°13' E 021°43'0 0.0
2018-Feb-18 01:20N 70°13' E 021°43'0 0.0
2018-Feb-18 01:00N 70°13' E 021°43'0 0.0
2018-Feb-18 00:30N 70°13' E 021°43'0 0.0
2018-Feb-17 23:56N 70°13' E 021°43'0 0.0
2018-Feb-17 23:29N 70°13' E 021°43'0 0.0
2018-Feb-17 22:53N 70°13' E 021°43'0 0.0
2018-Feb-17 22:29N 70°13' E 021°43'0 0.0
2018-Feb-17 21:56N 70°13' E 021°43'0 0.0
2018-Feb-17 21:29N 70°13' E 021°43'0 0.0
2018-Feb-17 21:00N 70°13' E 021°43'0 0.0
2018-Feb-17 20:30N 70°13' E 021°43'0 0.0
2018-Feb-17 20:00N 70°13' E 021°43'0 0.0
2018-Feb-17 19:30N 70°13' E 021°43'0 0.0
2018-Feb-17 19:00N 70°13' E 021°43'0 0.0
2018-Feb-17 18:28N 70°13' E 021°43'0 0.0
2018-Feb-17 17:59N 70°13' E 021°43'0 0.0
2018-Feb-17 17:30N 70°13' E 021°43'0 0.0
2018-Feb-17 17:00N 70°13' E 021°43'0 0.0
2018-Feb-17 16:29N 70°13' E 021°43'0 0.0
2018-Feb-17 15:58N 70°13' E 021°43'0 0.0
2018-Feb-17 15:14N 70°13' E 021°43'0 0.0
2018-Feb-17 15:00N 70°13' E 021°43'0 0.0
2018-Feb-17 14:30N 70°13' E 021°43'0 0.0
2018-Feb-17 13:50N 70°13' E 021°43'0 0.0
2018-Feb-17 13:13N 70°13' E 021°43'0 0.0
2018-Feb-17 12:49N 70°13' E 021°43'0 0.0
2018-Feb-17 12:26N 70°13' E 021°43'0 0.0
2018-Feb-17 11:59N 70°13' E 021°43'0 0.0
2018-Feb-17 10:59N 70°13' E 021°43'0 0.0
2018-Feb-17 10:29N 70°13' E 021°43'0 0.0
2018-Feb-17 09:59N 70°13' E 021°43'0 0.0
2018-Feb-17 09:30N 70°13' E 021°43'0 0.0
2018-Feb-17 08:58N 70°13' E 021°43'0 0.0
2018-Feb-17 08:30N 70°13' E 021°43'0 0.0
2018-Feb-17 08:00N 70°13' E 021°43'0 0.0
2018-Feb-17 07:30N 70°13' E 021°43'0 0.0
2018-Feb-17 07:00N 70°13' E 021°43'0 0.0
2018-Feb-17 06:30N 70°13' E 021°43'0 0.0
2018-Feb-17 06:00N 70°13' E 021°43'0 0.0
2018-Feb-17 05:29N 70°13' E 021°43'0 0.0
2018-Feb-17 04:59N 70°13' E 021°43'0 0.0
2018-Feb-17 04:30N 70°13' E 021°43'0 0.0
2018-Feb-17 04:00N 70°13' E 021°43'0 0.0
2018-Feb-17 03:30N 70°13' E 021°43'0 0.0
2018-Feb-17 03:00N 70°13' E 021°43'0 0.0
2018-Feb-17 02:30N 70°13' E 021°43'0 0.0
2018-Feb-17 02:00N 70°13' E 021°43'0 0.0
2018-Feb-17 01:29N 70°13' E 021°43'0 0.0
2018-Feb-17 01:00N 70°13' E 021°43'0 0.0
2018-Feb-17 00:18N 70°13' E 021°43'0 0.0
2018-Feb-16 23:51N 70°13' E 021°43'0 0.0
2018-Feb-16 23:27N 70°13' E 021°43'0 0.0
2018-Feb-16 23:00N 70°13' E 021°43'0 0.0
2018-Feb-16 22:30N 70°13' E 021°43'0 0.0
2018-Feb-16 21:59N 70°13' E 021°43'0 0.0
2018-Feb-16 21:30N 70°13' E 021°43'0 0.0
2018-Feb-16 20:59N 70°13' E 021°43'0 0.0
2018-Feb-16 20:30N 70°13' E 021°43'0 0.2
2018-Feb-16 20:00N 70°13' E 021°43'3 6.1
2018-Feb-16 19:29N 70°16' E 021°47'511.3
2018-Feb-16 19:00N 70°20' E 021°57'611.2
2018-Feb-16 18:30N 70°18' E 022°13'510.4
2018-Feb-16 18:00N 70°14' E 022°21'0 0.0
2018-Feb-16 17:30N 70°14' E 022°21'0 0.0
2018-Feb-16 17:00N 70°14' E 022°21'0 0.0
2018-Feb-16 16:30N 70°14' E 022°21'1 1.2
2018-Feb-16 16:00N 70°14' E 022°20'1 1.2
2018-Feb-16 15:30N 70°14' E 022°21'4 8.3
2018-Feb-16 15:00N 70°18' E 022°18'611.7
2018-Feb-16 14:30N 70°24' E 022°14'611.2
2018-Feb-16 14:00N 70°29' E 022°10'0 0.1
2018-Feb-16 13:30N 70°29' E 022°10'0 0.0
2018-Feb-16 13:00N 70°29' E 022°10'0 0.0
2018-Feb-16 12:30N 70°29' E 022°10'0 0.0
2018-Feb-16 12:00N 70°29' E 022°10'0 0.0
2018-Feb-16 11:30N 70°29' E 022°10'0 0.0
2018-Feb-16 10:59N 70°29' E 022°10'0 0.0
2018-Feb-16 10:30N 70°29' E 022°10'2 4.2
2018-Feb-16 10:00N 70°27' E 022°13'611.7
2018-Feb-16 09:30N 70°21' E 022°16'612.0
2018-Feb-16 09:00N 70°16' E 022°19'2 4.0
2018-Feb-16 08:29N 70°14' E 022°16'2 3.7
2018-Feb-16 08:00N 70°14' E 022°21'5 9.3
2018-Feb-16 07:30N 70°18' E 022°15'611.4
2018-Feb-16 07:00N 70°20' E 021°59'611.3
2018-Feb-16 06:29N 70°16' E 021°47'3 6.5
2018-Feb-16 05:59N 70°13' E 021°43'0 0.0
2018-Feb-16 05:29N 70°13' E 021°43'0 0.0
2018-Feb-16 05:00N 70°13' E 021°43'0 0.0
2018-Feb-16 04:29N 70°13' E 021°43'0 0.0
2018-Feb-16 03:55N 70°13' E 021°43'0 0.0
2018-Feb-16 03:16N 70°13' E 021°43'0 0.0
2018-Feb-16 02:37N 70°13' E 021°43'0 0.0
2018-Feb-16 02:24N 70°13' E 021°43'0 0.0
2018-Feb-16 01:50N 70°13' E 021°43'0 0.0
2018-Feb-16 01:24N 70°13' E 021°43'0 0.0
2018-Feb-16 00:58N 70°13' E 021°43'0 0.0
2018-Feb-15 23:54N 70°13' E 021°43'0 0.0
2018-Feb-15 22:47N 70°13' E 021°43'0 0.0
2018-Feb-15 22:28N 70°13' E 021°43'0 0.0
2018-Feb-15 21:58N 70°13' E 021°43'0 0.0
2018-Feb-15 21:30N 70°13' E 021°43'0 0.0
2018-Feb-15 21:00N 70°13' E 021°43'0 0.0
2018-Feb-15 20:30N 70°13' E 021°43'0 0.2
2018-Feb-15 20:00N 70°13' E 021°43'3 6.8
2018-Feb-15 19:30N 70°16' E 021°47'611.5
2018-Feb-15 18:59N 70°20' E 022°01'612.2
2018-Feb-15 18:30N 70°18' E 022°16'4 7.8
2018-Feb-15 17:59N 70°14' E 022°21'0 0.0
2018-Feb-15 17:29N 70°14' E 022°21'0 0.0
2018-Feb-15 16:59N 70°14' E 022°21'0 0.0
2018-Feb-15 16:30N 70°14' E 022°21'0 1.0
2018-Feb-15 15:59N 70°14' E 022°20'0 1.0
2018-Feb-15 15:30N 70°14' E 022°21'4 8.8
2018-Feb-15 15:00N 70°18' E 022°18'611.1
2018-Feb-15 14:30N 70°24' E 022°14'611.2
2018-Feb-15 14:00N 70°29' E 022°10'0 0.0
2018-Feb-15 13:30N 70°29' E 022°10'0 0.0
2018-Feb-15 13:01N 70°29' E 022°10'0 0.0
2018-Feb-15 12:30N 70°29' E 022°10'0 0.0
2018-Feb-15 12:01N 70°29' E 022°10'0 0.0
2018-Feb-15 11:30N 70°29' E 022°10'0 0.0
2018-Feb-15 11:00N 70°29' E 022°10'0 0.0
2018-Feb-15 10:30N 70°29' E 022°10'2 4.3
2018-Feb-15 10:00N 70°27' E 022°12'611.4
2018-Feb-15 09:30N 70°21' E 022°16'611.9
2018-Feb-15 09:00N 70°16' E 022°20'2 4.4
2018-Feb-15 08:30N 70°14' E 022°16'2 3.7
2018-Feb-15 08:00N 70°14' E 022°21'5 9.3
2018-Feb-15 07:30N 70°18' E 022°15'611.4
2018-Feb-15 06:59N 70°20' E 021°59'511.3
2018-Feb-15 06:30N 70°16' E 021°47'4 7.1
2018-Feb-15 06:00N 70°13' E 021°43'0 0.1
2018-Feb-15 05:25N 70°13' E 021°43'0 0.0
2018-Feb-15 04:56N 70°13' E 021°43'0 0.0
2018-Feb-15 04:29N 70°13' E 021°43'0 0.0
2018-Feb-15 04:00N 70°13' E 021°43'0 0.0
2018-Feb-15 03:29N 70°13' E 021°43'0 0.0
2018-Feb-15 02:41N 70°13' E 021°43'0 0.0
2018-Feb-15 02:07N 70°13' E 021°43'0 0.0
2018-Feb-15 00:55N 70°13' E 021°43'0 0.0
2018-Feb-15 00:14N 70°13' E 021°43'0 0.0
2018-Feb-14 23:33N 70°13' E 021°43'0 0.0
2018-Feb-14 23:30N 70°13' E 021°43'0 0.0
2018-Feb-14 22:36N 70°13' E 021°43'0 0.0
2018-Feb-14 21:32N 70°13' E 021°43'0 0.0
2018-Feb-14 21:21N 70°13' E 021°43'0 0.0
2018-Feb-14 20:59N 70°13' E 021°43'0 0.0
2018-Feb-14 20:04N 70°13' E 021°43'0 1.8
2018-Feb-14 20:00N 70°13' E 021°43'3 5.5
2018-Feb-14 19:30N 70°16' E 021°46'611.4
2018-Feb-14 19:00N 70°20' E 021°57'611.3
2018-Feb-14 18:29N 70°18' E 022°14'510.5
2018-Feb-14 18:00N 70°14' E 022°21'0 0.0
2018-Feb-14 17:30N 70°14' E 022°21'0 0.0
2018-Feb-14 16:59N 70°14' E 022°21'0 0.0
2018-Feb-14 16:30N 70°14' E 022°21'1 2.6
2018-Feb-14 16:00N 70°14' E 022°18'1 2.6
2018-Feb-14 15:30N 70°14' E 022°21'4 8.6
2018-Feb-14 15:00N 70°18' E 022°18'611.5
2018-Feb-14 14:30N 70°24' E 022°14'510.9
2018-Feb-14 14:00N 70°29' E 022°10'0 0.0
2018-Feb-14 13:30N 70°29' E 022°10'0 0.0
2018-Feb-14 12:59N 70°29' E 022°10'0 0.0
2018-Feb-14 12:30N 70°29' E 022°10'0 0.0
2018-Feb-14 12:00N 70°29' E 022°10'0 0.0
2018-Feb-14 11:30N 70°29' E 022°10'0 0.0
2018-Feb-14 11:00N 70°29' E 022°10'0 0.0
2018-Feb-14 10:30N 70°29' E 022°10'3 5.0
2018-Feb-14 10:00N 70°27' E 022°12'611.4
2018-Feb-14 09:30N 70°21' E 022°16'611.6
2018-Feb-14 09:00N 70°15' E 022°20'2 4.1
2018-Feb-14 08:29N 70°14' E 022°16'2 3.8
2018-Feb-14 08:00N 70°14' E 022°21'5 9.1
2018-Feb-14 07:30N 70°18' E 022°14'611.7
2018-Feb-14 07:00N 70°20' E 021°58'611.6
2018-Feb-14 06:30N 70°16' E 021°47'3 0.4
2018-Feb-13 21:41N 70°13' E 021°43'0 0.0
2018-Feb-13 21:29N 70°13' E 021°43'0 0.0
2018-Feb-13 20:57N 70°13' E 021°43'0 0.0
2018-Feb-13 20:27N 70°13' E 021°43'0 0.3
2018-Feb-13 20:00N 70°13' E 021°43'3 6.4
2018-Feb-13 19:30N 70°16' E 021°47'511.0
2018-Feb-13 19:00N 70°20' E 021°58'611.2
2018-Feb-13 18:30N 70°18' E 022°13'5 9.7
2018-Feb-13 18:00N 70°14' E 022°21'0 0.0
2018-Feb-13 17:30N 70°14' E 022°21'0 0.7
2018-Feb-13 16:59N 70°14' E 022°21'0 0.0
2018-Feb-13 16:29N 70°14' E 022°21'0 0.0
2018-Feb-13 16:00N 70°14' E 022°21'0 0.0
2018-Feb-13 15:30N 70°14' E 022°21'0 0.0
2018-Feb-13 15:00N 70°14' E 022°21'0 0.7
2018-Feb-13 14:30N 70°14' E 022°21'5 9.9
2018-Feb-13 14:00N 70°18' E 022°13'611.2
2018-Feb-13 13:30N 70°20' E 021°58'510.7
2018-Feb-13 13:00N 70°16' E 021°47'3 6.3
2018-Feb-13 12:29N 70°13' E 021°43'0 0.0
2018-Feb-13 11:58N 70°13' E 021°43'0 0.0
2018-Feb-13 11:29N 70°13' E 021°43'0 0.0
2018-Feb-13 10:51N 70°13' E 021°43'0 0.0
2018-Feb-13 10:16N 70°13' E 021°43'0 0.0
2018-Feb-13 09:52N 70°13' E 021°43'0 0.0
2018-Feb-13 09:27N 70°13' E 021°43'2 5.2
2018-Feb-13 09:00N 70°15' E 021°47'4 7.9
2018-Feb-13 08:30N 70°19' E 021°52'5 9.8
2018-Feb-13 08:00N 70°19' E 022°06'611.4
2018-Feb-13 07:30N 70°16' E 022°19'2 3.9
2018-Feb-13 06:59N 70°14' E 022°17'1 2.8
2018-Feb-13 06:30N 70°14' E 022°21'5 9.6
2018-Feb-13 06:00N 70°19' E 022°18'611.1
2018-Feb-13 05:30N 70°24' E 022°14'5 9.8
2018-Feb-13 04:59N 70°29' E 022°10'0 0.0
2018-Feb-13 04:30N 70°29' E 022°10'0 0.0
2018-Feb-13 04:00N 70°29' E 022°10'0 0.0
2018-Feb-13 03:30N 70°29' E 022°10'0 0.0
2018-Feb-13 03:00N 70°29' E 022°10'0 0.0
2018-Feb-13 02:30N 70°29' E 022°10'0 0.0
2018-Feb-13 02:00N 70°29' E 022°10'0 0.0
2018-Feb-13 01:30N 70°29' E 022°10'  
Track history (hours):
 
Tides and Currents Weather Stations Pressure Air Temp Water Temp Dewpoint Dewpoint Depression Visibility Wind Speed Wind Dir Waves Ship Positions

Hasvik

Last reported at 2018-Feb-23 01:00 UTC. Time now 2018-Feb-23 01:08 UTC.
Position N 70°29' E 022°10'.

Length 62 m; draft 3.5 m.

Type: Passenger vessel. MMSI: 258287000.

Date/timePositionNaut miles runAvg speedWind from/ knotsBaromVisibWave heightAir tempDewpointWater temp
2018-Feb-23 01:00N 70°29' E 022°10'0 0.0
2018-Feb-23 00:30N 70°29' E 022°10'0 0.0
2018-Feb-23 00:00N 70°29' E 022°10'0 0.0
2018-Feb-22 23:30N 70°29' E 022°10'0 0.0
2018-Feb-22 23:00N 70°29' E 022°10'0 0.0
2018-Feb-22 22:30N 70°29' E 022°10'0 0.0
2018-Feb-22 22:00N 70°29' E 022°10'0 0.0
2018-Feb-22 21:30N 70°29' E 022°10'0 0.0
2018-Feb-22 21:00N 70°29' E 022°10'0 0.0
2018-Feb-22 20:30N 70°29' E 022°10'4 7.9
2018-Feb-22 20:00N 70°25' E 022°13'611.7
2018-Feb-22 19:30N 70°20' E 022°17'611.6
2018-Feb-22 19:00N 70°14' E 022°21'2 3.4
2018-Feb-22 18:30N 70°14' E 022°16'2 3.2
2018-Feb-22 18:00N 70°15' E 022°19'611.9
2018-Feb-22 17:30N 70°21' E 022°16'611.7
2018-Feb-22 17:00N 70°26' E 022°13'2 4.3
2018-Feb-22 16:30N 70°29' E 022°11'611.5
2018-Feb-22 16:00N 70°23' E 022°15'611.5
2018-Feb-22 15:30N 70°17' E 022°19'3 7.0
2018-Feb-22 15:00N 70°14' E 022°21'0 0.0
2018-Feb-22 14:30N 70°14' E 022°21'0 0.0
2018-Feb-22 14:00N 70°14' E 022°21'0 0.0
2018-Feb-22 13:30N 70°14' E 022°21'0 0.0
2018-Feb-22 13:00N 70°14' E 022°21'0 0.0
2018-Feb-22 12:30N 70°14' E 022°21'0 0.0
2018-Feb-22 12:00N 70°14' E 022°21'0 0.0
2018-Feb-22 11:30N 70°14' E 022°21'0 0.0
2018-Feb-22 11:00N 70°14' E 022°21'0 0.0
2018-Feb-22 10:30N 70°14' E 022°21'2 4.2
2018-Feb-22 09:59N 70°16' E 022°19'611.6
2018-Feb-22 09:30N 70°22' E 022°15'611.9
2018-Feb-22 09:00N 70°27' E 022°12'0 0.6
2018-Feb-22 08:29N 70°28' E 022°12'611.3
2018-Feb-22 08:00N 70°22' E 022°16'611.5
2018-Feb-22 07:30N 70°16' E 022°19'3 5.3
2018-Feb-22 07:00N 70°14' E 022°18'1 2.3
2018-Feb-22 06:30N 70°14' E 022°21'4 8.2
2018-Feb-22 06:00N 70°18' E 022°18'611.9
2018-Feb-22 05:30N 70°24' E 022°14'610.9
2018-Feb-22 05:00N 70°29' E 022°10'0 0.0
2018-Feb-22 04:30N 70°29' E 022°10'0 0.0
2018-Feb-22 04:00N 70°29' E 022°10'0 0.0
2018-Feb-22 03:29N 70°29' E 022°10'0 0.0
2018-Feb-22 03:00N 70°29' E 022°10'0 0.0
2018-Feb-22 02:30N 70°29' E 022°10'0 0.0
2018-Feb-22 01:59N 70°29' E 022°10'0 0.0
2018-Feb-22 01:30N 70°29' E 022°10'0 0.0
2018-Feb-22 01:00N 70°29' E 022°10'0 0.0
2018-Feb-22 00:29N 70°29' E 022°10'0 0.0
2018-Feb-22 00:00N 70°29' E 022°10'0 0.0
2018-Feb-21 23:29N 70°29' E 022°10'0 0.0
2018-Feb-21 23:00N 70°29' E 022°10'0 0.0
2018-Feb-21 22:29N 70°29' E 022°10'0 0.0
2018-Feb-21 22:00N 70°29' E 022°10'0 0.0
2018-Feb-21 21:30N 70°29' E 022°10'0 0.0
2018-Feb-21 21:00N 70°29' E 022°10'0 0.0
2018-Feb-21 20:30N 70°29' E 022°10'4 8.3
2018-Feb-21 20:00N 70°25' E 022°14'611.4
2018-Feb-21 19:30N 70°20' E 022°17'611.4
2018-Feb-21 19:00N 70°14' E 022°21'2 3.5
2018-Feb-21 18:30N 70°14' E 022°16'2 3.4
2018-Feb-21 17:59N 70°15' E 022°19'611.8
2018-Feb-21 17:30N 70°21' E 022°16'611.8
2018-Feb-21 17:00N 70°26' E 022°13'2 4.5
2018-Feb-21 16:30N 70°29' E 022°11'611.6
2018-Feb-21 16:00N 70°23' E 022°15'611.6
2018-Feb-21 15:29N 70°17' E 022°18'3 6.8
2018-Feb-21 15:00N 70°14' E 022°21'0 0.0
2018-Feb-21 14:30N 70°14' E 022°21'0 0.0
2018-Feb-21 14:00N 70°14' E 022°21'0 0.0
2018-Feb-21 13:29N 70°14' E 022°21'0 0.0
2018-Feb-21 13:00N 70°14' E 022°21'0 0.0
2018-Feb-21 12:30N 70°14' E 022°21'0 0.0
2018-Feb-21 12:00N 70°14' E 022°21'0 0.0
2018-Feb-21 11:30N 70°14' E 022°21'0 0.0
2018-Feb-21 11:00N 70°14' E 022°21'0 0.0
2018-Feb-21 10:30N 70°14' E 022°21'3 5.5
2018-Feb-21 10:00N 70°17' E 022°19'611.6
2018-Feb-21 09:30N 70°22' E 022°15'612.0
2018-Feb-21 09:00N 70°28' E 022°11'0 0.5
2018-Feb-21 08:29N 70°28' E 022°12'611.6
2018-Feb-21 07:58N 70°22' E 022°16'611.9
2018-Feb-21 07:30N 70°17' E 022°19'3 5.2
2018-Feb-21 07:00N 70°14' E 022°18'1 2.3
2018-Feb-21 06:30N 70°14' E 022°21'4 8.0
2018-Feb-21 06:00N 70°18' E 022°18'611.7
2018-Feb-21 05:29N 70°24' E 022°15'511.4
2018-Feb-21 05:00N 70°29' E 022°10'0 0.1
2018-Feb-21 04:30N 70°29' E 022°10'0 0.0
2018-Feb-21 03:59N 70°29' E 022°10'0 0.0
2018-Feb-21 03:30N 70°29' E 022°10'0 0.0
2018-Feb-21 03:00N 70°29' E 022°10'0 0.0
2018-Feb-21 02:30N 70°29' E 022°10'0 0.0
2018-Feb-21 01:59N 70°29' E 022°10'0 0.0
2018-Feb-21 01:30N 70°29' E 022°10'0 0.0
2018-Feb-21 01:00N 70°29' E 022°10'0 0.0
2018-Feb-21 00:30N 70°29' E 022°10'0 0.0
2018-Feb-21 00:00N 70°29' E 022°10'0 0.0
2018-Feb-20 23:30N 70°29' E 022°10'0 0.0
2018-Feb-20 23:00N 70°29' E 022°10'0 0.0
2018-Feb-20 22:30N 70°29' E 022°10'0 0.0
2018-Feb-20 21:59N 70°29' E 022°10'0 0.0
2018-Feb-20 21:30N 70°29' E 022°10'0 0.0
2018-Feb-20 21:00N 70°29' E 022°10'0 0.1
2018-Feb-20 20:30N 70°29' E 022°10'610.8
2018-Feb-20 19:59N 70°23' E 022°15'611.8
2018-Feb-20 19:30N 70°18' E 022°18'4 8.3
2018-Feb-20 19:00N 70°14' E 022°21'0 0.9
2018-Feb-20 18:30N 70°14' E 022°20'3 6.5
2018-Feb-20 17:59N 70°17' E 022°18'611.8
2018-Feb-20 17:30N 70°23' E 022°15'611.9
2018-Feb-20 17:00N 70°29' E 022°10'2 3.5
2018-Feb-20 16:30N 70°27' E 022°12'611.6
2018-Feb-20 15:59N 70°21' E 022°16'611.9
2018-Feb-20 15:30N 70°16' E 022°19'2 3.4
2018-Feb-20 15:00N 70°14' E 022°21'0 0.4
2018-Feb-20 14:30N 70°14' E 022°21'0 0.0
2018-Feb-20 14:00N 70°14' E 022°21'0 0.0
2018-Feb-20 13:29N 70°14' E 022°21'0 0.0
2018-Feb-20 13:00N 70°14' E 022°21'0 0.0
2018-Feb-20 12:30N 70°14' E 022°21'0 0.0
2018-Feb-20 12:00N 70°14' E 022°21'4 8.0
2018-Feb-20 11:30N 70°18' E 022°18'611.9
2018-Feb-20 11:00N 70°24' E 022°14'610.9
2018-Feb-20 10:30N 70°29' E 022°10'3 6.0
2018-Feb-20 10:00N 70°26' E 022°13'611.7
2018-Feb-20 09:28N 70°20' E 022°17'611.9
2018-Feb-20 09:00N 70°15' E 022°20'2 3.5
2018-Feb-20 08:30N 70°14' E 022°16'2 3.7
2018-Feb-20 08:00N 70°14' E 022°21'4 9.0
2018-Feb-20 07:30N 70°18' E 022°15'611.4
2018-Feb-20 07:00N 70°20' E 021°60'611.2
2018-Feb-20 06:30N 70°17' E 021°47'4 7.2
2018-Feb-20 06:00N 70°13' E 021°43'0 0.0
2018-Feb-20 05:29N 70°13' E 021°43'0 0.0
2018-Feb-20 04:59N 70°13' E 021°43'0 0.0
2018-Feb-20 04:23N 70°13' E 021°43'0 0.0
2018-Feb-20 03:56N 70°13' E 021°43'0 0.0
2018-Feb-20 03:16N 70°13' E 021°43'0 0.0
2018-Feb-20 02:36N 70°13' E 021°43'0 0.0
2018-Feb-20 02:24N 70°13' E 021°43'0 0.0
2018-Feb-20 01:25N 70°13' E 021°43'0 0.0
2018-Feb-20 00:27N 70°13' E 021°43'0 0.0
2018-Feb-20 00:00N 70°13' E 021°43'0 0.0
2018-Feb-19 23:28N 70°13' E 021°43'0 0.0
2018-Feb-19 22:58N 70°13' E 021°43'0 0.0
2018-Feb-19 22:30N 70°13' E 021°43'0 0.0
2018-Feb-19 21:32N 70°13' E 021°43'0 0.1
2018-Feb-19 21:30N 70°13' E 021°43'0 0.0
2018-Feb-19 21:00N 70°13' E 021°43'0 0.0
2018-Feb-19 20:20N 70°13' E 021°43'0 0.0
2018-Feb-19 19:59N 70°13' E 021°43'3 5.7
2018-Feb-19 19:30N 70°16' E 021°46'611.1
2018-Feb-19 19:00N 70°20' E 021°57'511.1
2018-Feb-19 18:30N 70°18' E 022°12'510.5
2018-Feb-19 18:00N 70°14' E 022°21'0 0.0
2018-Feb-19 17:30N 70°14' E 022°21'0 0.0
2018-Feb-19 17:00N 70°14' E 022°21'0 0.0
2018-Feb-19 16:30N 70°14' E 022°21'0 0.5
2018-Feb-19 15:59N 70°14' E 022°21'0 0.5
2018-Feb-19 15:29N 70°14' E 022°21'4 8.4
2018-Feb-19 15:00N 70°18' E 022°18'611.6
2018-Feb-19 14:30N 70°24' E 022°14'611.2
2018-Feb-19 14:00N 70°29' E 022°10'0 0.0
2018-Feb-19 13:30N 70°29' E 022°10'0 0.0
2018-Feb-19 12:59N 70°29' E 022°10'0 0.0
2018-Feb-19 12:30N 70°29' E 022°10'0 0.0
2018-Feb-19 12:00N 70°29' E 022°10'0 0.0
2018-Feb-19 11:29N 70°29' E 022°10'0 0.0
2018-Feb-19 11:00N 70°29' E 022°10'0 0.0
2018-Feb-19 10:30N 70°29' E 022°10'2 4.8
2018-Feb-19 10:00N 70°27' E 022°13'611.5
2018-Feb-19 09:30N 70°21' E 022°16'612.1
2018-Feb-19 09:00N 70°15' E 022°20'2 3.6
2018-Feb-19 08:29N 70°14' E 022°16'2 3.8
2018-Feb-19 08:00N 70°14' E 022°21'5 9.5
2018-Feb-19 07:30N 70°18' E 022°14'611.4
2018-Feb-19 06:59N 70°20' E 021°58'611.4
2018-Feb-19 06:30N 70°16' E 021°47'3 6.4
2018-Feb-19 06:00N 70°13' E 021°43'0 0.0
2018-Feb-18 20:00N 70°13' E 021°43'3 5.5
2018-Feb-18 19:28N 70°16' E 021°46'511.2
2018-Feb-18 19:00N 70°20' E 021°56'611.0
2018-Feb-18 18:30N 70°18' E 022°12'510.9
2018-Feb-18 18:00N 70°14' E 022°21'3 5.2
2018-Feb-18 17:30N 70°17' E 022°19'611.2
2018-Feb-18 16:59N 70°20' E 022°05'5 9.9
2018-Feb-18 16:30N 70°18' E 021°51'4 7.0
2018-Feb-18 16:00N 70°15' E 021°46'2 4.6
2018-Feb-18 15:30N 70°13' E 021°43'0 0.0
2018-Feb-18 14:52N 70°13' E 021°43'0 0.0
2018-Feb-18 14:13N 70°13' E 021°43'0 0.0
2018-Feb-18 13:44N 70°13' E 021°43'0 0.0
2018-Feb-18 13:25N 70°13' E 021°43'0 0.0
2018-Feb-18 12:58N 70°13' E 021°43'0 0.0
2018-Feb-18 12:16N 70°13' E 021°43'0 0.0
2018-Feb-18 12:00N 70°13' E 021°43'0 0.0
2018-Feb-18 11:28N 70°13' E 021°43'0 0.0
2018-Feb-18 10:59N 70°13' E 021°43'0 0.0
2018-Feb-18 10:30N 70°13' E 021°43'0 0.0
2018-Feb-18 10:00N 70°13' E 021°43'0 0.0
2018-Feb-18 09:28N 70°13' E 021°43'0 0.0
2018-Feb-18 09:00N 70°13' E 021°43'0 0.0
2018-Feb-18 08:30N 70°13' E 021°43'0 0.0
2018-Feb-18 08:00N 70°13' E 021°43'0 0.0
2018-Feb-18 07:30N 70°13' E 021°43'0 0.0
2018-Feb-18 06:59N 70°13' E 021°43'0 0.0
2018-Feb-18 06:30N 70°13' E 021°43'0 0.0
2018-Feb-18 06:00N 70°13' E 021°43'0 0.0
2018-Feb-18 05:30N 70°13' E 021°43'0 0.0
2018-Feb-18 04:59N 70°13' E 021°43'0 0.0
2018-Feb-18 04:29N 70°13' E 021°43'0 0.0
2018-Feb-18 03:58N 70°13' E 021°43'0 0.0
2018-Feb-18 03:25N 70°13' E 021°43'0 0.0
2018-Feb-18 03:00N 70°13' E 021°43'0 0.0
2018-Feb-18 02:29N 70°13' E 021°43'0 0.0
2018-Feb-18 01:59N 70°13' E 021°43'0 0.0
2018-Feb-18 01:20N 70°13' E 021°43'0 0.0
2018-Feb-18 01:00N 70°13' E 021°43'0 0.0
2018-Feb-18 00:30N 70°13' E 021°43'0 0.0
2018-Feb-17 23:56N 70°13' E 021°43'0 0.0
2018-Feb-17 23:29N 70°13' E 021°43'0 0.0
2018-Feb-17 22:53N 70°13' E 021°43'0 0.0
2018-Feb-17 22:29N 70°13' E 021°43'0 0.0
2018-Feb-17 21:56N 70°13' E 021°43'0 0.0
2018-Feb-17 21:29N 70°13' E 021°43'0 0.0
2018-Feb-17 21:00N 70°13' E 021°43'0 0.0
2018-Feb-17 20:30N 70°13' E 021°43'0 0.0
2018-Feb-17 20:00N 70°13' E 021°43'0 0.0
2018-Feb-17 19:30N 70°13' E 021°43'0 0.0
2018-Feb-17 19:00N 70°13' E 021°43'0 0.0
2018-Feb-17 18:28N 70°13' E 021°43'0 0.0
2018-Feb-17 17:59N 70°13' E 021°43'0 0.0
2018-Feb-17 17:30N 70°13' E 021°43'0 0.0
2018-Feb-17 17:00N 70°13' E 021°43'0 0.0
2018-Feb-17 16:29N 70°13' E 021°43'0 0.0
2018-Feb-17 15:58N 70°13' E 021°43'0 0.0
2018-Feb-17 15:14N 70°13' E 021°43'0 0.0
2018-Feb-17 15:00N 70°13' E 021°43'0 0.0
2018-Feb-17 14:30N 70°13' E 021°43'0 0.0
2018-Feb-17 13:50N 70°13' E 021°43'0 0.0
2018-Feb-17 13:13N 70°13' E 021°43'0 0.0
2018-Feb-17 12:49N 70°13' E 021°43'0 0.0
2018-Feb-17 12:26N 70°13' E 021°43'0 0.0
2018-Feb-17 11:59N 70°13' E 021°43'0 0.0
2018-Feb-17 10:59N 70°13' E 021°43'0 0.0
2018-Feb-17 10:29N 70°13' E 021°43'0 0.0
2018-Feb-17 09:59N 70°13' E 021°43'0 0.0
2018-Feb-17 09:30N 70°13' E 021°43'0 0.0
2018-Feb-17 08:58N 70°13' E 021°43'0 0.0
2018-Feb-17 08:30N 70°13' E 021°43'0 0.0
2018-Feb-17 08:00N 70°13' E 021°43'0 0.0
2018-Feb-17 07:30N 70°13' E 021°43'0 0.0
2018-Feb-17 07:00N 70°13' E 021°43'0 0.0
2018-Feb-17 06:30N 70°13' E 021°43'0 0.0
2018-Feb-17 06:00N 70°13' E 021°43'0 0.0
2018-Feb-17 05:29N 70°13' E 021°43'0 0.0
2018-Feb-17 04:59N 70°13' E 021°43'0 0.0
2018-Feb-17 04:30N 70°13' E 021°43'0 0.0
2018-Feb-17 04:00N 70°13' E 021°43'0 0.0
2018-Feb-17 03:30N 70°13' E 021°43'0 0.0
2018-Feb-17 03:00N 70°13' E 021°43'0 0.0
2018-Feb-17 02:30N 70°13' E 021°43'0 0.0
2018-Feb-17 02:00N 70°13' E 021°43'0 0.0
2018-Feb-17 01:29N 70°13' E 021°43'0 0.0
2018-Feb-17 01:00N 70°13' E 021°43'0 0.0
2018-Feb-17 00:18N 70°13' E 021°43'0 0.0
2018-Feb-16 23:51N 70°13' E 021°43'0 0.0
2018-Feb-16 23:27N 70°13' E 021°43'0 0.0
2018-Feb-16 23:00N 70°13' E 021°43'0 0.0
2018-Feb-16 22:30N 70°13' E 021°43'0 0.0
2018-Feb-16 21:59N 70°13' E 021°43'0 0.0
2018-Feb-16 21:30N 70°13' E 021°43'0 0.0
2018-Feb-16 20:59N 70°13' E 021°43'0 0.0
2018-Feb-16 20:30N 70°13' E 021°43'0 0.2
2018-Feb-16 20:00N 70°13' E 021°43'3 6.1
2018-Feb-16 19:29N 70°16' E 021°47'511.3
2018-Feb-16 19:00N 70°20' E 021°57'611.2
2018-Feb-16 18:30N 70°18' E 022°13'510.4
2018-Feb-16 18:00N 70°14' E 022°21'0 0.0
2018-Feb-16 17:30N 70°14' E 022°21'0 0.0
2018-Feb-16 17:00N 70°14' E 022°21'0 0.0
2018-Feb-16 16:30N 70°14' E 022°21'1 1.2
2018-Feb-16 16:00N 70°14' E 022°20'1 1.2
2018-Feb-16 15:30N 70°14' E 022°21'4 8.3
2018-Feb-16 15:00N 70°18' E 022°18'611.7
2018-Feb-16 14:30N 70°24' E 022°14'611.2
2018-Feb-16 14:00N 70°29' E 022°10'0 0.1
2018-Feb-16 13:30N 70°29' E 022°10'0 0.0
2018-Feb-16 13:00N 70°29' E 022°10'0 0.0
2018-Feb-16 12:30N 70°29' E 022°10'0 0.0
2018-Feb-16 12:00N 70°29' E 022°10'0 0.0
2018-Feb-16 11:30N 70°29' E 022°10'0 0.0
2018-Feb-16 10:59N 70°29' E 022°10'0 0.0
2018-Feb-16 10:30N 70°29' E 022°10'2 4.2
2018-Feb-16 10:00N 70°27' E 022°13'611.7
2018-Feb-16 09:30N 70°21' E 022°16'612.0
2018-Feb-16 09:00N 70°16' E 022°19'2 4.0
2018-Feb-16 08:29N 70°14' E 022°16'2 3.7
2018-Feb-16 08:00N 70°14' E 022°21'5 9.3
2018-Feb-16 07:30N 70°18' E 022°15'611.4
2018-Feb-16 07:00N 70°20' E 021°59'611.3
2018-Feb-16 06:29N 70°16' E 021°47'3 6.5
2018-Feb-16 05:59N 70°13' E 021°43'0 0.0
2018-Feb-16 05:29N 70°13' E 021°43'0 0.0
2018-Feb-16 05:00N 70°13' E 021°43'0 0.0
2018-Feb-16 04:29N 70°13' E 021°43'0 0.0
2018-Feb-16 03:55N 70°13' E 021°43'0 0.0
2018-Feb-16 03:16N 70°13' E 021°43'0 0.0
2018-Feb-16 02:37N 70°13' E 021°43'0 0.0
2018-Feb-16 02:24N 70°13' E 021°43'0 0.0
2018-Feb-16 01:50N 70°13' E 021°43'0 0.0
2018-Feb-16 01:24N 70°13' E 021°43'0 0.0
2018-Feb-16 00:58N 70°13' E 021°43'0 0.0
2018-Feb-15 23:54N 70°13' E 021°43'0 0.0
2018-Feb-15 22:47N 70°13' E 021°43'0 0.0
2018-Feb-15 22:28N 70°13' E 021°43'0 0.0
2018-Feb-15 21:58N 70°13' E 021°43'0 0.0
2018-Feb-15 21:30N 70°13' E 021°43'0 0.0
2018-Feb-15 21:00N 70°13' E 021°43'0 0.0
2018-Feb-15 20:30N 70°13' E 021°43'0 0.2
2018-Feb-15 20:00N 70°13' E 021°43'3 6.8
2018-Feb-15 19:30N 70°16' E 021°47'611.5
2018-Feb-15 18:59N 70°20' E 022°01'612.2
2018-Feb-15 18:30N 70°18' E 022°16'4 7.8
2018-Feb-15 17:59N 70°14' E 022°21'0 0.0
2018-Feb-15 17:29N 70°14' E 022°21'0 0.0
2018-Feb-15 16:59N 70°14' E 022°21'0 0.0
2018-Feb-15 16:30N 70°14' E 022°21'0 1.0
2018-Feb-15 15:59N 70°14' E 022°20'0 1.0
2018-Feb-15 15:30N 70°14' E 022°21'4 8.8
2018-Feb-15 15:00N 70°18' E 022°18'611.1
2018-Feb-15 14:30N 70°24' E 022°14'611.2
2018-Feb-15 14:00N 70°29' E 022°10'0 0.0
2018-Feb-15 13:30N 70°29' E 022°10'0 0.0
2018-Feb-15 13:01N 70°29' E 022°10'0 0.0
2018-Feb-15 12:30N 70°29' E 022°10'0 0.0
2018-Feb-15 12:01N 70°29' E 022°10'0 0.0
2018-Feb-15 11:30N 70°29' E 022°10'0 0.0
2018-Feb-15 11:00N 70°29' E 022°10'0 0.0
2018-Feb-15 10:30N 70°29' E 022°10'2 4.3
2018-Feb-15 10:00N 70°27' E 022°12'611.4
2018-Feb-15 09:30N 70°21' E 022°16'611.9
2018-Feb-15 09:00N 70°16' E 022°20'2 4.4
2018-Feb-15 08:30N 70°14' E 022°16'2 3.7
2018-Feb-15 08:00N 70°14' E 022°21'5 9.3
2018-Feb-15 07:30N 70°18' E 022°15'611.4
2018-Feb-15 06:59N 70°20' E 021°59'511.3
2018-Feb-15 06:30N 70°16' E 021°47'4 7.1
2018-Feb-15 06:00N 70°13' E 021°43'0 0.1
2018-Feb-15 05:25N 70°13' E 021°43'0 0.0
2018-Feb-15 04:56N 70°13' E 021°43'0 0.0
2018-Feb-15 04:29N 70°13' E 021°43'0 0.0
2018-Feb-15 04:00N 70°13' E 021°43'0 0.0
2018-Feb-15 03:29N 70°13' E 021°43'0 0.0
2018-Feb-15 02:41N 70°13' E 021°43'0 0.0
2018-Feb-15 02:07N 70°13' E 021°43'0 0.0
2018-Feb-15 00:55N 70°13' E 021°43'0 0.0
2018-Feb-15 00:14N 70°13' E 021°43'0 0.0
2018-Feb-14 23:33N 70°13' E 021°43'0 0.0
2018-Feb-14 23:30N 70°13' E 021°43'0 0.0
2018-Feb-14 22:36N 70°13' E 021°43'0 0.0
2018-Feb-14 21:32N 70°13' E 021°43'0 0.0
2018-Feb-14 21:21N 70°13' E 021°43'0 0.0
2018-Feb-14 20:59N 70°13' E 021°43'0 0.0
2018-Feb-14 20:04N 70°13' E 021°43'0 1.8
2018-Feb-14 20:00N 70°13' E 021°43'3 5.5
2018-Feb-14 19:30N 70°16' E 021°46'611.4
2018-Feb-14 19:00N 70°20' E 021°57'611.3
2018-Feb-14 18:29N 70°18' E 022°14'510.5
2018-Feb-14 18:00N 70°14' E 022°21'0 0.0
2018-Feb-14 17:30N 70°14' E 022°21'0 0.0
2018-Feb-14 16:59N 70°14' E 022°21'0 0.0
2018-Feb-14 16:30N 70°14' E 022°21'1 2.6
2018-Feb-14 16:00N 70°14' E 022°18'1 2.6
2018-Feb-14 15:30N 70°14' E 022°21'4 8.6
2018-Feb-14 15:00N 70°18' E 022°18'611.5
2018-Feb-14 14:30N 70°24' E 022°14'510.9
2018-Feb-14 14:00N 70°29' E 022°10'0 0.0
2018-Feb-14 13:30N 70°29' E 022°10'0 0.0
2018-Feb-14 12:59N 70°29' E 022°10'0 0.0
2018-Feb-14 12:30N 70°29' E 022°10'0 0.0
2018-Feb-14 12:00N 70°29' E 022°10'0 0.0
2018-Feb-14 11:30N 70°29' E 022°10'0 0.0
2018-Feb-14 11:00N 70°29' E 022°10'0 0.0
2018-Feb-14 10:30N 70°29' E 022°10'3 5.0
2018-Feb-14 10:00N 70°27' E 022°12'611.4
2018-Feb-14 09:30N 70°21' E 022°16'611.6
2018-Feb-14 09:00N 70°15' E 022°20'2 4.1
2018-Feb-14 08:29N 70°14' E 022°16'2 3.8
2018-Feb-14 08:00N 70°14' E 022°21'5 9.1
2018-Feb-14 07:30N 70°18' E 022°14'611.7
2018-Feb-14 07:00N 70°20' E 021°58'611.6
2018-Feb-14 06:30N 70°16' E 021°47'3 0.4
2018-Feb-13 21:41N 70°13' E 021°43'0 0.0
2018-Feb-13 21:29N 70°13' E 021°43'0 0.0
2018-Feb-13 20:57N 70°13' E 021°43'0 0.0
2018-Feb-13 20:27N 70°13' E 021°43'0 0.3
2018-Feb-13 20:00N 70°13' E 021°43'3 6.4
2018-Feb-13 19:30N 70°16' E 021°47'511.0
2018-Feb-13 19:00N 70°20' E 021°58'611.2
2018-Feb-13 18:30N 70°18' E 022°13'5 9.7
2018-Feb-13 18:00N 70°14' E 022°21'0 0.0
2018-Feb-13 17:30N 70°14' E 022°21'0 0.7
2018-Feb-13 16:59N 70°14' E 022°21'0 0.0
2018-Feb-13 16:29N 70°14' E 022°21'0 0.0
2018-Feb-13 16:00N 70°14' E 022°21'0 0.0
2018-Feb-13 15:30N 70°14' E 022°21'0 0.0
2018-Feb-13 15:00N 70°14' E 022°21'0 0.7
2018-Feb-13 14:30N 70°14' E 022°21'5 9.9
2018-Feb-13 14:00N 70°18' E 022°13'611.2
2018-Feb-13 13:30N 70°20' E 021°58'510.7
2018-Feb-13 13:00N 70°16' E 021°47'3 6.3
2018-Feb-13 12:29N 70°13' E 021°43'0 0.0
2018-Feb-13 11:58N 70°13' E 021°43'0 0.0
2018-Feb-13 11:29N 70°13' E 021°43'0 0.0
2018-Feb-13 10:51N 70°13' E 021°43'0 0.0
2018-Feb-13 10:16N 70°13' E 021°43'0 0.0
2018-Feb-13 09:52N 70°13' E 021°43'0 0.0
2018-Feb-13 09:27N 70°13' E 021°43'2 5.2
2018-Feb-13 09:00N 70°15' E 021°47'4 7.9
2018-Feb-13 08:30N 70°19' E 021°52'5 9.8
2018-Feb-13 08:00N 70°19' E 022°06'611.4
2018-Feb-13 07:30N 70°16' E 022°19'2 3.9
2018-Feb-13 06:59N 70°14' E 022°17'1 2.8
2018-Feb-13 06:30N 70°14' E 022°21'5 9.6
2018-Feb-13 06:00N 70°19' E 022°18'611.1
2018-Feb-13 05:30N 70°24' E 022°14'5 9.8
2018-Feb-13 04:59N 70°29' E 022°10'0 0.0
2018-Feb-13 04:30N 70°29' E 022°10'0 0.0
2018-Feb-13 04:00N 70°29' E 022°10'0 0.0
2018-Feb-13 03:30N 70°29' E 022°10'0 0.0
2018-Feb-13 03:00N 70°29' E 022°10'0 0.0
2018-Feb-13 02:30N 70°29' E 022°10'0 0.0
2018-Feb-13 02:00N 70°29' E 022°10'0 0.0
2018-Feb-13 01:30N 70°29' E 022°10'  

Dump ship's entire track history